Time;durP1;ratioP1;P1;durP2;ratioP2;P2;SDS_P1;SDS_P2;PMS_P1;PMS_P2;Temp;Humidity;BMP_temperature;BMP_pressure;BME280_temperature;BME280_humidity;BME280_pressure;Samples;Min_cycle;Max_cycle;Signal;HPM_P1;HPM_P2
2021/09/14 00:04:53;;;;;;;31.33;24.93;;;;;13.10;100977.00;;;;10567090;27;20220;-76
2021/09/14 00:09:55;;;;;;;32.53;25.13;;;;;13.00;100984.00;;;;10528116;27;20193;-76
2021/09/14 00:14:56;;;;;;;26.67;23.53;;;;;13.00;100985.00;;;;10542986;27;20211;-76
2021/09/14 00:19:57;;;;;;;27.37;22.50;;;;;12.90;100983.00;;;;10510741;27;20224;-76
2021/09/14 00:24:58;;;;;;;27.23;22.67;;;;;12.80;100987.00;;;;10525699;27;20214;-77
2021/09/14 00:29:59;;;;;;;30.87;24.27;;;;;12.80;100977.00;;;;10540815;27;20205;-76
2021/09/14 00:35:01;;;;;;;31.10;24.40;;;;;12.80;100981.00;;;;10552553;27;20199;-77
2021/09/14 00:40:05;;;;;;;27.53;24.33;;;;;12.80;100983.00;;;;10551652;27;20785;-77
2021/09/14 00:45:06;;;;;;;29.37;23.83;;;;;12.70;100979.00;;;;10565096;27;20239;-77
2021/09/14 00:50:09;;;;;;;28.33;23.40;;;;;12.70;100981.00;;;;10558751;27;20283;-77
2021/09/14 00:55:10;;;;;;;30.20;22.63;;;;;12.70;100981.00;;;;10523107;27;20211;-77
2021/09/14 01:00:12;;;;;;;30.63;23.43;;;;;12.60;100974.00;;;;10573768;27;20214;-77
2021/09/14 01:05:14;;;;;;;35.53;24.67;;;;;12.60;100969.00;;;;10571566;27;20207;-77
2021/09/14 01:10:15;;;;;;;34.57;25.70;;;;;12.60;100966.00;;;;10603430;27;20195;-77
2021/09/14 01:15:16;;;;;;;30.90;24.50;;;;;12.60;100957.00;;;;10570313;27;20569;-77
2021/09/14 01:20:18;;;;;;;32.60;26.13;;;;;12.50;100943.00;;;;10557943;27;20199;-77
2021/09/14 01:25:22;;;;;;;35.33;26.63;;;;;12.50;100944.00;;;;10526566;27;20216;-77
2021/09/14 01:30:26;;;;;;;31.67;25.83;;;;;12.40;100936.00;;;;10509232;28;20744;-77
2021/09/14 01:35:31;;;;;;;40.83;30.13;;;;;12.40;100929.00;;;;10500825;28;20764;-77
2021/09/14 01:40:34;;;;;;;38.97;29.87;;;;;12.40;100920.00;;;;10501571;28;20213;-77
2021/09/14 01:45:41;;;;;;;48.03;32.93;;;;;12.40;100927.00;;;;10501046;28;20213;-77
2021/09/14 01:50:47;;;;;;;42.47;31.80;;;;;12.50;100932.00;;;;10492465;27;20200;-77
2021/09/14 01:55:49;;;;;;;45.27;31.90;;;;;12.50;100930.00;;;;10538984;28;20214;-77
2021/09/14 02:01:05;;;;;;;40.63;30.30;;;;;12.50;100940.00;;;;10596562;27;20566;-77
2021/09/14 02:06:31;;;;;;;41.83;31.53;;;;;12.40;100929.00;;;;10513603;28;20240;-77
2021/09/14 02:59:25;;;;;;;63.43;38.73;;;;;12.40;100897.00;;;;10589618;27;20222;-77
2021/09/14 03:04:28;;;;;;;54.23;37.90;;;;;12.40;100901.00;;;;10593938;27;20207;-78
2021/09/14 03:09:30;;;;;;;63.10;40.93;;;;;12.40;100899.00;;;;10575649;27;20199;-78
2021/09/14 03:14:31;;;;;;;66.10;42.33;;;;;12.40;100899.00;;;;10569841;27;20254;-78
2021/09/14 03:19:32;;;;;;;63.23;42.07;;;;;12.40;100906.00;;;;10499383;28;20979;-77
2021/09/14 03:24:35;;;;;;;61.47;40.13;;;;;12.30;100904.00;;;;10529692;28;20193;-77
2021/09/14 03:29:38;;;;;;;59.60;38.93;;;;;12.30;100907.00;;;;10558086;27;21019;-77
2021/09/14 03:34:39;;;;;;;57.27;39.80;;;;;12.20;100910.00;;;;10572601;27;20208;-77
2021/09/14 03:39:41;;;;;;;59.77;39.93;;;;;12.20;100901.00;;;;10573598;27;20684;-78
2021/09/14 03:44:49;;;;;;;67.03;43.13;;;;;12.20;100897.00;;;;10504577;28;20580;-78
2021/09/14 03:49:52;;;;;;;58.10;40.43;;;;;12.20;100885.00;;;;10488342;28;20227;-78
2021/09/14 03:54:53;;;;;;;53.27;36.97;;;;;12.20;100873.00;;;;10487782;28;20208;-78
2021/09/14 03:59:55;;;;;;;59.50;39.73;;;;;12.10;100858.00;;;;10472399;28;20616;-78
2021/09/14 04:10:02;;;;;;;74.70;43.67;;;;;12.10;100854.00;;;;10503910;28;20193;-78
2021/09/14 04:15:08;;;;;;;75.90;44.17;;;;;12.20;100847.00;;;;10527465;28;20242;-77
2021/09/14 04:20:10;;;;;;;74.30;46.13;;;;;12.20;100862.00;;;;10526763;28;20188;-77
2021/09/14 04:25:13;;;;;;;78.20;46.27;;;;;12.20;100867.00;;;;10544038;28;20884;-77
2021/09/14 04:30:16;;;;;;;73.00;44.60;;;;;12.20;100871.00;;;;10528177;27;20235;-77
2021/09/14 04:35:20;;;;;;;69.23;43.03;;;;;12.20;100875.00;;;;10527201;27;20196;-78
2021/09/14 04:40:21;;;;;;;73.10;44.80;;;;;12.20;100871.00;;;;10527604;27;20223;-77
2021/09/14 04:45:23;;;;;;;74.97;45.43;;;;;12.20;100871.00;;;;10543705;28;20246;-78
2021/09/14 04:50:24;;;;;;;70.60;45.37;;;;;12.10;100860.00;;;;10525739;28;20596;-78
2021/09/14 04:55:25;;;;;;;70.33;43.40;;;;;12.10;100863.00;;;;10526224;28;20198;-77
2021/09/14 05:00:27;;;;;;;73.70;43.33;;;;;12.10;100854.00;;;;10561621;27;20211;-78
2021/09/14 05:05:29;;;;;;;80.30;46.50;;;;;12.00;100854.00;;;;10587564;27;20199;-78
2021/09/14 05:10:31;;;;;;;83.17;47.43;;;;;12.00;100846.00;;;;10591970;27;20215;-77
2021/09/14 05:15:32;;;;;;;85.07;49.57;;;;;12.10;100850.00;;;;10527302;27;20677;-77
2021/09/14 05:20:55;;;;;;;89.30;51.17;;;;;12.20;100846.00;;;;10528745;27;20794;-77
2021/09/14 05:26:02;;;;;;;97.03;53.17;;;;;12.30;100848.00;;;;10542183;27;20311;-77
2021/09/14 05:31:06;;;;;;;98.20;53.83;;;;;12.40;100859.00;;;;10573156;27;20207;-77
2021/09/14 05:36:08;;;;;;;95.30;52.73;;;;;12.50;100844.00;;;;10545202;27;20248;-77
2021/09/14 05:41:11;;;;;;;87.53;50.47;;;;;12.50;100844.00;;;;10561420;28;20318;-77
2021/09/14 05:46:13;;;;;;;84.00;49.30;;;;;12.50;100844.00;;;;10485514;28;20213;-77
2021/09/14 05:51:15;;;;;;;90.83;49.80;;;;;12.60;100836.00;;;;10494306;28;20777;-77
2021/09/14 05:56:30;;;;;;;94.17;48.30;;;;;12.70;100845.00;;;;10509064;28;20193;-77
2021/09/14 06:01:37;;;;;;;95.70;51.07;;;;;12.90;100848.00;;;;10510825;28;20200;-77
2021/09/14 06:06:39;;;;;;;95.13;53.97;;;;;13.20;100861.00;;;;10509439;27;20250;-78
2021/09/14 06:11:45;;;;;;;98.30;54.43;;;;;13.60;100861.00;;;;10535868;27;20204;-78
2021/09/14 06:16:46;;;;;;;91.37;52.53;;;;;13.90;100844.00;;;;10551813;27;20196;-78
2021/09/14 06:21:51;;;;;;;87.63;48.53;;;;;14.40;100837.00;;;;10514954;28;20209;-77
2021/09/14 06:26:52;;;;;;;74.83;46.17;;;;;14.50;100844.00;;;;10500139;27;20223;-77
2021/09/14 06:31:53;;;;;;;64.90;41.73;;;;;14.80;100848.00;;;;10569012;27;20200;-77
2021/09/14 06:37:13;;;;;;;57.23;40.87;;;;;15.40;100870.00;;;;10571078;27;20234;-78
2021/09/14 06:42:14;;;;;;;50.83;36.37;;;;;15.40;100880.00;;;;10519975;27;20225;-78
2021/09/14 06:47:17;;;;;;;46.70;33.70;;;;;15.30;100891.00;;;;10508815;28;20227;-78
2021/09/14 06:52:18;;;;;;;47.80;34.73;;;;;15.70;100902.00;;;;10515845;28;20295;-78
2021/09/14 06:57:20;;;;;;;42.00;33.17;;;;;16.10;100905.00;;;;10537250;27;20228;-77
2021/09/14 07:02:21;;;;;;;36.90;31.60;;;;;16.20;100906.00;;;;10575682;27;20195;-77
2021/09/14 07:07:24;;;;;;;38.30;28.67;;;;;16.10;100898.00;;;;10576551;27;20237;-77
2021/09/14 07:12:27;;;;;;;39.70;29.48;;;;;15.90;100887.00;;;;10560229;28;20192;-77
2021/09/14 07:17:28;;;;;;;39.15;30.92;;;;;15.90;100877.00;;;;10513921;28;20309;-78
2021/09/14 07:22:29;;;;;;;37.80;29.02;;;;;16.10;100875.00;;;;10562932;28;20192;-77
2021/09/14 07:27:30;;;;;;;40.45;29.33;;;;;16.50;100885.00;;;;10537908;28;20749;-77
2021/09/14 07:32:32;;;;;;;38.65;30.30;;;;;16.70;100892.00;;;;10591955;27;20203;-77
2021/09/14 07:37:33;;;;;;;35.50;29.77;;;;;16.80;100898.00;;;;10607678;27;20191;-77
2021/09/14 07:42:34;;;;;;;35.17;28.23;;;;;16.90;100873.00;;;;10528847;28;20253;-78
2021/09/14 07:47:35;;;;;;;35.33;28.88;;;;;17.60;100871.00;;;;10544643;28;20349;-77
2021/09/14 07:52:36;;;;;;;34.33;26.58;;;;;18.30;100872.00;;;;10545892;27;20188;-77
2021/09/14 07:57:38;;;;;;;31.40;25.58;;;;;18.70;100866.00;;;;10523361;27;20922;-78
2021/09/14 08:02:39;;;;;;;31.15;24.83;;;;;19.00;100876.00;;;;10566610;27;20219;-77
2021/09/14 08:07:40;;;;;;;29.38;23.08;;;;;19.10;100883.00;;;;10537695;28;20221;-77
2021/09/14 08:12:42;;;;;;;25.80;20.67;;;;;19.10;100877.00;;;;10503172;28;20208;-77
2021/09/14 08:17:43;;;;;;;28.02;21.73;;;;;19.40;100872.00;;;;10486493;28;20228;-77
2021/09/14 08:22:44;;;;;;;24.88;21.08;;;;;19.70;100861.00;;;;10520926;28;20207;-77
2021/09/14 08:27:45;;;;;;;22.48;18.90;;;;;20.50;100873.00;;;;10503127;28;20981;-78
2021/09/14 08:32:51;;;;;;;19.80;17.42;;;;;21.30;100856.00;;;;10492084;27;20752;-77
2021/09/14 08:37:52;;;;;;;18.48;15.52;;;;;21.90;100865.00;;;;10545563;28;20219;-78
2021/09/14 08:42:53;;;;;;;16.42;14.75;;;;;22.20;100857.00;;;;10525416;28;20223;-78
2021/09/14 08:47:56;;;;;;;15.90;13.45;;;;;22.30;100859.00;;;;10498790;28;20328;-78
2021/09/14 08:52:58;;;;;;;13.55;12.25;;;;;22.70;100859.00;;;;10494610;28;20303;-78
2021/09/14 08:57:59;;;;;;;14.43;12.27;;;;;23.00;100860.00;;;;10557720;27;20720;-78
2021/09/14 09:03:02;;;;;;;13.02;11.82;;;;;23.00;100874.00;;;;10565545;28;20287;-78
2021/09/14 09:08:16;;;;;;;15.90;10.63;;;;;23.70;100867.00;;;;10498965;28;20204;-77
2021/09/14 09:13:17;;;;;;;13.50;11.38;;;;;24.40;100859.00;;;;10539590;27;20204;-79
2021/09/14 09:18:19;;;;;;;16.30;11.65;;;;;24.90;100858.00;;;;10526524;28;20732;-78
2021/09/14 09:23:24;;;;;;;11.73;10.52;;;;;24.80;100855.00;;;;10532617;27;20718;-78
2021/09/14 09:28:25;;;;;;;13.30;11.98;;;;;25.00;100856.00;;;;10519204;27;20220;-79
2021/09/14 09:33:28;;;;;;;13.63;10.93;;;;;25.00;100844.00;;;;10555163;27;20230;-78
2021/09/14 09:38:30;;;;;;;13.82;12.27;;;;;25.00;100850.00;;;;10544650;27;20314;-79
2021/09/14 09:43:31;;;;;;;12.60;11.23;;;;;25.20;100847.00;;;;10531701;27;20531;-79
2021/09/14 09:48:35;;;;;;;14.15;12.20;;;;;25.30;100846.00;;;;10534756;28;20219;-78
2021/09/14 09:53:38;;;;;;;13.32;11.23;;;;;25.20;100858.00;;;;10550037;28;20215;-79
2021/09/14 09:58:40;;;;;;;13.63;11.32;;;;;25.70;100861.00;;;;10519260;28;20847;-79
2021/09/14 10:04:06;;;;;;;11.25;8.68;;;;;26.50;100867.00;;;;10535889;28;20635;-79
2021/09/14 10:09:07;;;;;;;13.50;10.48;;;;;26.50;100870.00;;;;10553162;27;20223;-79
2021/09/14 10:14:14;;;;;;;14.02;9.45;;;;;26.40;100862.00;;;;10528696;27;20562;-79
2021/09/14 10:19:17;;;;;;;9.20;8.25;;;;;26.60;100856.00;;;;10509898;28;20211;-79
2021/09/14 10:24:20;;;;;;;12.13;9.18;;;;;26.40;100850.00;;;;10506477;28;20204;-78
2021/09/14 10:29:22;;;;;;;11.57;7.78;;;;;26.30;100857.00;;;;10550302;27;20883;-78
2021/09/14 10:34:28;;;;;;;11.57;8.30;;;;;26.00;100837.00;;;;10563084;27;20216;-79
2021/09/14 10:39:36;;;;;;;9.30;8.30;;;;;25.80;100830.00;;;;10551160;27;20220;-79
2021/09/14 10:44:38;;;;;;;13.20;8.07;;;;;25.80;100820.00;;;;10510497;27;20207;-78
2021/09/14 10:49:58;;;;;;;10.45;8.38;;;;;25.90;100825.00;;;;10526952;28;20216;-79
2021/09/14 10:55:05;;;;;;;12.00;8.13;;;;;25.80;100823.00;;;;10487228;28;20192;-79
2021/09/14 11:00:09;;;;;;;9.27;7.53;;;;;25.80;100814.00;;;;10526184;28;20222;-79
2021/09/14 11:05:11;;;;;;;11.85;7.32;;;;;25.70;100804.00;;;;10543204;27;20223;-79
2021/09/14 11:10:19;;;;;;;9.05;6.13;;;;;25.60;100791.00;;;;10543267;27;20192;-79
2021/09/14 11:15:20;;;;;;;5.45;4.95;;;;;25.50;100796.00;;;;10508088;27;20610;-79
2021/09/14 11:20:30;;;;;;;6.88;5.30;;;;;25.40;100800.00;;;;10524643;28;20759;-79
2021/09/14 11:25:31;;;;;;;7.40;6.30;;;;;25.10;100797.00;;;;10530028;27;20227;-79
2021/09/14 11:30:35;;;;;;;7.45;6.00;;;;;24.90;100801.00;;;;10531955;27;20212;-79
2021/09/14 11:35:39;;;;;;;8.27;5.38;;;;;24.80;100801.00;;;;10506718;27;20200;-78
2021/09/14 11:40:50;;;;;;;6.18;5.03;;;;;24.80;100812.00;;;;10539356;27;20253;-78
2021/09/14 11:45:54;;;;;;;9.77;5.60;;;;;24.70;100811.00;;;;10540476;27;20212;-78
2021/09/14 11:51:05;;;;;;;5.82;5.30;;;;;24.50;100820.00;;;;10541970;27;20200;-78
2021/09/14 11:56:12;;;;;;;7.78;5.57;;;;;24.20;100821.00;;;;10557953;27;20193;-78
2021/09/14 12:01:18;;;;;;;7.95;5.47;;;;;24.10;100822.00;;;;10548669;28;20188;-79
2021/09/14 12:06:23;;;;;;;7.38;6.13;;;;;23.90;100806.00;;;;10517984;27;20220;-78
2021/09/14 12:11:29;;;;;;;7.60;5.80;;;;;23.70;100812.00;;;;10517830;28;20201;-78
2021/09/14 12:16:36;;;;;;;7.57;5.80;;;;;23.60;100802.00;;;;10541250;27;20559;-79
2021/09/14 12:21:37;;;;;;;7.97;5.47;;;;;23.70;100794.00;;;;10549971;27;20283;-78
2021/09/14 12:26:41;;;;;;;7.82;6.25;;;;;24.00;100798.00;;;;10515781;27;20219;-78
2021/09/14 12:31:42;;;;;;;7.15;6.55;;;;;24.20;100772.00;;;;10575737;27;20248;-78
2021/09/14 12:36:44;;;;;;;10.07;6.40;;;;;24.50;100760.00;;;;10537728;28;20197;-80
2021/09/14 12:41:46;;;;;;;9.45;6.85;;;;;25.20;100749.00;;;;10518780;28;20222;-80
2021/09/14 12:46:47;;;;;;;9.75;6.63;;;;;25.80;100733.00;;;;10524192;27;20220;-80
2021/09/14 12:51:48;;;;;;;9.95;6.68;;;;;26.00;100729.00;;;;10529000;27;20227;-80
2021/09/14 12:56:49;;;;;;;8.88;6.63;;;;;25.90;100719.00;;;;10565322;27;20199;-79
2021/09/14 13:01:50;;;;;;;7.18;6.45;;;;;25.50;100717.00;;;;10554021;27;20207;-80
2021/09/14 13:06:51;;;;;;;8.20;6.50;;;;;24.80;100746.00;;;;10516424;27;20212;-80
2021/09/14 13:11:52;;;;;;;7.25;6.55;;;;;23.90;100725.00;;;;10547842;27;20200;-78
2021/09/14 13:16:54;;;;;;;8.25;6.57;;;;;23.40;100720.00;;;;10553247;27;20204;-79
2021/09/14 13:21:55;;;;;;;10.25;7.20;;;;;23.60;100715.00;;;;10556447;28;20256;-78
2021/09/14 13:26:56;;;;;;;7.07;6.28;;;;;23.40;100724.00;;;;10516357;27;20204;-78
2021/09/14 13:31:57;;;;;;;7.07;6.15;;;;;24.10;100712.00;;;;10529393;27;20200;-78
2021/09/14 13:36:58;;;;;;;6.93;5.85;;;;;25.30;100716.00;;;;10530846;28;20209;-78
2021/09/14 13:41:59;;;;;;;8.00;5.57;;;;;26.60;100728.00;;;;10574200;27;20904;-79
2021/09/14 13:47:08;;;;;;;7.13;6.32;;;;;26.50;100740.00;;;;10537713;27;20326;-78
2021/09/14 13:52:11;;;;;;;9.10;6.03;;;;;25.60;100737.00;;;;10563915;27;20262;-79
2021/09/14 13:57:13;;;;;;;8.00;5.75;;;;;25.10;100737.00;;;;10551040;27;20207;-78
2021/09/14 14:02:14;;;;;;;6.70;5.85;;;;;25.10;100735.00;;;;10555962;28;20200;-78
2021/09/14 14:07:15;;;;;;;9.18;5.82;;;;;25.30;100731.00;;;;10522305;28;20215;-79
2021/09/14 14:12:16;;;;;;;7.35;4.47;;;;;25.30;100739.00;;;;10541209;27;20201;-79
2021/09/14 14:17:18;;;;;;;6.55;4.80;;;;;25.20;100747.00;;;;10573601;27;20207;-78
2021/09/14 14:22:19;;;;;;;6.13;5.45;;;;;25.30;100753.00;;;;10572579;27;20196;-78
2021/09/14 14:27:23;;;;;;;10.15;5.57;;;;;25.80;100726.00;;;;10552346;27;20283;-79
2021/09/14 14:32:24;;;;;;;8.65;5.75;;;;;25.90;100742.00;;;;10568602;27;20227;-78
2021/09/14 14:37:25;;;;;;;5.53;5.03;;;;;25.50;100740.00;;;;10545098;28;20659;-79
2021/09/14 14:42:26;;;;;;;6.55;5.90;;;;;24.70;100733.00;;;;10585442;27;20207;-79
2021/09/14 14:47:28;;;;;;;8.20;7.40;;;;;23.90;100742.00;;;;10533679;27;20231;-78
2021/09/14 14:52:29;;;;;;;11.15;6.30;;;;;23.30;100739.00;;;;10556887;27;20206;-76
2021/09/14 14:57:31;;;;;;;6.68;5.70;;;;;23.30;100741.00;;;;10522845;28;20208;-76
2021/09/14 15:02:32;;;;;;;9.07;6.25;;;;;23.20;100731.00;;;;10533012;27;20290;-76
2021/09/14 15:07:36;;;;;;;6.03;5.43;;;;;23.10;100729.00;;;;10526692;28;20274;-76
2021/09/14 15:12:38;;;;;;;6.38;5.60;;;;;23.00;100726.00;;;;10529037;28;20208;-76
2021/09/14 15:17:43;;;;;;;7.35;6.32;;;;;22.90;100729.00;;;;10554344;28;20336;-76
2021/09/14 15:22:45;;;;;;;7.45;5.82;;;;;22.90;100715.00;;;;10519181;28;20200;-76
2021/09/14 15:27:48;;;;;;;6.88;6.00;;;;;23.10;100710.00;;;;10534366;27;20215;-76
2021/09/14 15:32:49;;;;;;;8.02;5.80;;;;;22.90;100704.00;;;;10522844;28;20196;-76
2021/09/14 15:37:50;;;;;;;6.82;5.70;;;;;22.90;100708.00;;;;10483334;28;20212;-77
2021/09/14 15:42:51;;;;;;;6.50;5.53;;;;;23.00;100696.00;;;;10550623;27;20720;-77
2021/09/14 15:47:53;;;;;;;6.80;5.43;;;;;23.10;100698.00;;;;10567160;27;20208;-77
2021/09/14 15:52:54;;;;;;;9.70;6.15;;;;;23.30;100694.00;;;;10557025;27;20196;-77
2021/09/14 15:57:56;;;;;;;6.22;5.63;;;;;23.40;100686.00;;;;10537049;27;20204;-77
2021/09/14 16:02:58;;;;;;;6.40;5.80;;;;;23.50;100685.00;;;;10526370;28;20872;-77
2021/09/14 16:08:04;;;;;;;8.88;6.38;;;;;23.40;100682.00;;;;10536107;28;20220;-77
2021/09/14 16:13:05;;;;;;;10.10;6.15;;;;;23.40;100676.00;;;;10530495;27;20199;-77
2021/09/14 16:18:06;;;;;;;6.70;6.00;;;;;23.20;100670.00;;;;10535851;28;20189;-77
2021/09/14 16:23:07;;;;;;;9.82;6.30;;;;;23.00;100672.00;;;;10545150;28;20200;-76
2021/09/14 16:28:09;;;;;;;6.95;6.32;;;;;22.80;100668.00;;;;10525192;27;20224;-77
2021/09/14 16:33:11;;;;;;;7.28;6.05;;;;;22.60;100663.00;;;;10554748;27;20683;-79
2021/09/14 16:38:13;;;;;;;7.35;6.65;;;;;22.50;100657.00;;;;10530665;27;20302;-78
2021/09/14 16:43:14;;;;;;;9.95;6.30;;;;;22.30;100654.00;;;;10534287;27;20619;-78
2021/09/14 16:48:16;;;;;;;7.15;6.40;;;;;22.30;100649.00;;;;10530623;27;20215;-78
2021/09/14 16:53:17;;;;;;;7.90;6.32;;;;;22.10;100653.00;;;;10564084;27;20187;-78
2021/09/14 16:58:18;;;;;;;12.93;6.93;;;;;22.10;100643.00;;;;10565173;27;20207;-78
2021/09/14 17:03:20;;;;;;;8.57;6.10;;;;;22.00;100648.00;;;;10521512;27;20211;-76
2021/09/14 17:08:21;;;;;;;8.82;7.47;;;;;21.90;100646.00;;;;10506564;27;20350;-76
2021/09/14 17:13:22;;;;;;;9.02;6.53;;;;;21.80;100641.00;;;;10574176;27;20312;-76
2021/09/14 17:18:24;;;;;;;7.15;6.45;;;;;21.70;100649.00;;;;10510365;28;20204;-76
2021/09/14 17:23:26;;;;;;;6.72;6.03;;;;;21.60;100653.00;;;;10530865;27;20611;-78
2021/09/14 17:28:29;;;;;;;6.68;6.05;;;;;21.60;100643.00;;;;10551728;27;20323;-77
2021/09/14 17:33:31;;;;;;;10.57;7.30;;;;;21.60;100645.00;;;;10523927;27;20282;-77
2021/09/14 17:38:32;;;;;;;9.00;6.75;;;;;21.50;100637.00;;;;10523466;28;20220;-78
2021/09/14 17:43:33;;;;;;;7.60;6.90;;;;;21.40;100639.00;;;;10534492;27;20207;-78
2021/09/14 17:48:34;;;;;;;7.53;6.82;;;;;21.30;100636.00;;;;10542164;27;20307;-78
2021/09/14 17:53:36;;;;;;;8.55;6.38;;;;;21.20;100628.00;;;;10535265;27;20222;-78
2021/09/14 17:58:37;;;;;;;8.23;6.28;;;;;21.10;100640.00;;;;10557304;28;20204;-78
2021/09/14 18:03:38;;;;;;;6.55;5.95;;;;;21.00;100645.00;;;;10535176;28;20223;-78
2021/09/14 18:08:40;;;;;;;9.15;7.70;;;;;21.00;100632.00;;;;10505658;27;20223;-78
2021/09/14 18:13:41;;;;;;;7.07;6.20;;;;;20.90;100635.00;;;;10537911;27;20192;-78
2021/09/14 18:18:42;;;;;;;12.25;6.25;;;;;20.90;100640.00;;;;10525660;27;20208;-78
2021/09/14 18:23:43;;;;;;;7.07;6.38;;;;;20.80;100650.00;;;;10536166;27;20189;-78
2021/09/14 18:28:44;;;;;;;10.60;7.60;;;;;20.70;100647.00;;;;10507337;28;20271;-78
2021/09/14 18:33:51;;;;;;;8.82;7.30;;;;;20.70;100645.00;;;;10536993;28;20193;-78
2021/09/14 18:38:52;;;;;;;9.32;6.60;;;;;20.60;100648.00;;;;10523719;27;20293;-77
2021/09/14 18:43:54;;;;;;;9.30;6.95;;;;;20.60;100651.00;;;;10555033;27;20769;-78
2021/09/14 18:48:56;;;;;;;9.80;6.60;;;;;20.50;100642.00;;;;10534087;27;20223;-78
2021/09/14 18:53:57;;;;;;;10.02;7.85;;;;;20.50;100645.00;;;;10546573;27;20213;-78
2021/09/14 18:58:58;;;;;;;7.63;6.80;;;;;20.40;100633.00;;;;10536464;27;20196;-77
2021/09/14 19:03:59;;;;;;;8.25;7.40;;;;;20.40;100641.00;;;;10543771;27;20204;-78
2021/09/14 19:09:03;;;;;;;8.88;7.28;;;;;20.40;100648.00;;;;10527632;28;20265;-77
2021/09/14 19:14:04;;;;;;;10.77;8.32;;;;;20.30;100650.00;;;;10501624;27;20612;-77
2021/09/14 19:19:06;;;;;;;11.10;7.80;;;;;20.30;100646.00;;;;10557489;27;20199;-78
2021/09/14 19:24:08;;;;;;;8.48;7.07;;;;;20.30;100637.00;;;;10554110;28;20228;-78
2021/09/14 19:29:10;;;;;;;8.45;7.65;;;;;20.30;100641.00;;;;10500653;28;20220;-77
2021/09/14 19:34:11;;;;;;;10.23;7.68;;;;;20.30;100635.00;;;;10536092;27;20299;-78
2021/09/14 19:39:12;;;;;;;8.07;7.28;;;;;20.30;100654.00;;;;10557613;27;20869;-78
2021/09/14 19:44:13;;;;;;;9.50;7.40;;;;;20.20;100640.00;;;;10531590;27;20411;-78
2021/09/14 19:49:15;;;;;;;9.32;7.80;;;;;20.20;100644.00;;;;10549804;27;20822;-78
2021/09/14 19:54:16;;;;;;;7.78;6.97;;;;;20.20;100647.00;;;;10520920;28;20227;-77
2021/09/14 19:59:17;;;;;;;12.68;7.38;;;;;20.20;100652.00;;;;10509392;27;20252;-77
2021/09/14 20:04:18;;;;;;;11.30;7.80;;;;;20.10;100661.00;;;;10556919;27;20197;-77
2021/09/14 20:09:21;;;;;;;11.77;7.28;;;;;20.10;100662.00;;;;10519184;27;20734;-77
2021/09/14 20:14:22;;;;;;;9.05;7.00;;;;;20.00;100674.00;;;;10497048;28;20227;-78
2021/09/14 20:19:24;;;;;;;10.73;7.35;;;;;20.00;100684.00;;;;10510680;28;20203;-77
2021/09/14 20:24:26;;;;;;;9.75;7.25;;;;;20.00;100681.00;;;;10524658;27;20203;-77
2021/09/14 20:29:27;;;;;;;9.73;6.32;;;;;20.00;100685.00;;;;10528211;28;20231;-77
2021/09/14 20:34:28;;;;;;;9.13;6.47;;;;;20.00;100683.00;;;;10524979;28;20205;-77
2021/09/14 20:39:30;;;;;;;10.43;5.97;;;;;20.00;100676.00;;;;10509748;27;20216;-77
2021/09/14 20:44:31;;;;;;;9.52;6.00;;;;;20.10;100680.00;;;;10509143;27;20224;-78
2021/09/14 20:49:32;;;;;;;7.47;5.50;;;;;20.10;100686.00;;;;10547846;28;20353;-78
2021/09/14 20:54:33;;;;;;;5.78;4.28;;;;;20.00;100684.00;;;;10521062;28;20203;-77
2021/09/14 20:59:43;;;;;;;6.65;4.57;;;;;20.00;100683.00;;;;10538342;27;20291;-78
2021/09/14 21:04:44;;;;;;;4.75;3.88;;;;;20.00;100680.00;;;;10531182;27;20253;-78
2021/09/14 21:09:45;;;;;;;6.15;4.20;;;;;20.00;100690.00;;;;10524246;28;20308;-78
2021/09/14 21:14:47;;;;;;;7.90;4.30;;;;;19.90;100685.00;;;;10522839;27;20206;-79
2021/09/14 21:19:48;;;;;;;5.75;4.10;;;;;19.90;100688.00;;;;10519718;27;20200;-79
2021/09/14 21:24:49;;;;;;;4.93;3.63;;;;;19.80;100688.00;;;;10504955;27;20188;-79
2021/09/14 21:29:51;;;;;;;4.88;3.92;;;;;19.70;100683.00;;;;10534539;28;20249;-80
2021/09/14 21:34:53;;;;;;;5.47;3.78;;;;;19.70;100674.00;;;;10529555;28;20266;-79
2021/09/14 21:39:54;;;;;;;9.45;4.43;;;;;19.50;100663.00;;;;10511950;28;20224;-80
2021/09/14 21:44:55;;;;;;;6.70;4.07;;;;;19.30;100655.00;;;;10524344;28;20606;-79
2021/09/14 21:49:56;;;;;;;5.85;4.60;;;;;19.20;100641.00;;;;10518845;28;20555;-79
2021/09/14 21:54:58;;;;;;;6.45;4.25;;;;;19.10;100646.00;;;;10497040;27;20200;-80
2021/09/14 21:59:59;;;;;;;7.80;4.60;;;;;19.00;100640.00;;;;10523011;28;21110;-79
2021/09/14 22:05:00;;;;;;;9.55;4.82;;;;;19.00;100639.00;;;;10535631;28;20204;-80
2021/09/14 22:10:04;;;;;;;8.52;5.20;;;;;19.00;100646.00;;;;10507629;28;20213;-80
2021/09/14 22:15:06;;;;;;;5.93;5.15;;;;;18.90;100640.00;;;;10475602;28;20319;-80
2021/09/14 22:20:08;;;;;;;8.07;5.32;;;;;18.90;100635.00;;;;10504691;28;20248;-80
2021/09/14 22:25:25;;;;;;;6.75;5.25;;;;;18.90;100628.00;;;;10519522;28;20544;-80
2021/09/14 22:30:26;;;;;;;7.93;5.25;;;;;18.80;100626.00;;;;10481700;28;20259;-80
2021/09/14 22:35:28;;;;;;;7.80;5.38;;;;;18.80;100640.00;;;;10509969;28;20204;-80
2021/09/14 22:40:29;;;;;;;9.25;5.72;;;;;18.90;100640.00;;;;10492449;28;20564;-80
2021/09/14 22:45:30;;;;;;;8.20;5.45;;;;;18.90;100638.00;;;;10508777;28;20196;-79
2021/09/14 22:50:31;;;;;;;10.13;5.10;;;;;18.90;100638.00;;;;10493327;28;20197;-80
2021/09/14 22:55:33;;;;;;;5.03;4.50;;;;;18.90;100628.00;;;;10492817;28;20697;-79
2021/09/14 23:00:34;;;;;;;6.13;5.40;;;;;18.90;100615.00;;;;10541876;28;20200;-80
2021/09/14 23:05:36;;;;;;;5.28;4.85;;;;;18.90;100608.00;;;;10517262;28;20189;-80
2021/09/14 23:10:37;;;;;;;9.82;6.32;;;;;18.90;100600.00;;;;10516669;28;20196;-80
2021/09/14 23:15:39;;;;;;;9.32;6.00;;;;;19.00;100601.00;;;;10516337;28;20227;-80
2021/09/14 23:20:40;;;;;;;6.88;5.65;;;;;19.00;100586.00;;;;10515842;28;20295;-80
2021/09/14 23:25:41;;;;;;;8.18;6.20;;;;;19.00;100586.00;;;;10515606;28;20733;-80
2021/09/14 23:30:42;;;;;;;8.68;6.13;;;;;19.00;100570.00;;;;10492387;28;20208;-80
2021/09/14 23:35:43;;;;;;;8.48;6.20;;;;;19.00;100580.00;;;;10507042;28;20543;-81
2021/09/14 23:40:45;;;;;;;10.93;7.28;;;;;19.00;100576.00;;;;10565176;28;20212;-80
2021/09/14 23:45:46;;;;;;;11.32;7.57;;;;;19.00;100567.00;;;;10531539;28;20216;-80
2021/09/14 23:50:47;;;;;;;10.00;7.38;;;;;19.00;100569.00;;;;10549209;27;20188;-80
2021/09/14 23:55:48;;;;;;;10.70;7.47;;;;;19.00;100577.00;;;;10533418;27;20199;-80
